createdAt,value
2018-06-12T00:01:31.600Z,16.10
2018-06-12T00:04:01.369Z,16.00
2018-06-12T00:06:38.399Z,15.90
2018-06-12T00:09:07.456Z,15.80
2018-06-12T00:12:00.277Z,15.80
2018-06-12T00:14:30.988Z,15.70
2018-06-12T00:16:59.592Z,15.60
2018-06-12T00:19:48.474Z,15.60
2018-06-12T00:22:22.770Z,15.60
2018-06-12T00:27:34.830Z,15.50
2018-06-12T00:30:03.676Z,15.50
2018-06-12T00:32:34.483Z,15.40
2018-06-12T00:35:14.729Z,15.40
2018-06-12T00:37:50.204Z,15.40
2018-06-12T00:40:39.104Z,15.30
2018-06-12T00:43:09.841Z,15.30
2018-06-12T00:45:44.834Z,15.20
2018-06-12T00:48:14.486Z,15.10
2018-06-12T00:50:46.556Z,15.10
2018-06-12T00:53:16.841Z,15.00
2018-06-12T00:55:45.486Z,15.00
2018-06-12T00:58:22.129Z,15.00
2018-06-12T01:01:02.474Z,15.00
2018-06-12T01:03:37.050Z,14.90
2018-06-12T01:06:05.754Z,14.90
2018-06-12T01:08:36.546Z,14.90
2018-06-12T01:11:05.231Z,14.80
2018-06-12T01:13:34.841Z,14.80
2018-06-12T01:16:07.572Z,14.80
2018-06-12T01:18:39.874Z,14.80
2018-06-12T01:21:20.160Z,14.70
2018-06-12T01:23:51.298Z,14.60
2018-06-12T01:26:24.060Z,14.60
2018-06-12T01:28:52.772Z,14.60
2018-06-12T01:31:22.442Z,14.50
2018-06-12T01:33:56.546Z,14.50
2018-06-12T01:36:31.744Z,14.50
2018-06-12T01:39:04.594Z,14.40
2018-06-12T01:41:33.182Z,14.40
2018-06-12T01:44:02.695Z,14.40
2018-06-12T01:46:34.477Z,14.40
2018-06-12T01:49:08.635Z,14.40
2018-06-12T01:51:38.363Z,14.30
2018-06-12T01:54:11.014Z,14.30
2018-06-12T01:56:39.666Z,14.30
2018-06-12T01:59:09.296Z,14.20
2018-06-12T02:01:44.084Z,14.20
2018-06-12T02:06:43.479Z,14.20
2018-06-12T02:09:12.090Z,14.00
2018-06-12T02:14:36.942Z,14.00
2018-06-12T02:20:09.112Z,13.90
2018-06-12T02:22:39.632Z,13.90
2018-06-12T02:28:00.996Z,13.80
2018-06-12T02:30:29.665Z,13.80
2018-06-12T02:35:28.582Z,13.80
2018-06-12T02:37:59.164Z,13.70
2018-06-12T02:40:30.008Z,13.70
2018-06-12T02:42:58.627Z,13.70
2018-06-12T02:45:28.272Z,13.70
2018-06-12T02:47:57.916Z,13.70
2018-06-12T02:50:27.523Z,13.60
2018-06-12T02:52:56.158Z,13.60
2018-06-12T02:55:24.881Z,13.60
2018-06-12T02:57:55.366Z,13.60
2018-06-12T03:00:25.909Z,13.50
2018-06-12T03:02:55.514Z,13.50
2018-06-12T03:05:27.868Z,13.60
2018-06-12T03:10:32.020Z,13.50
2018-06-12T03:13:00.682Z,13.50
2018-06-12T03:15:33.710Z,13.60
2018-06-12T03:18:02.447Z,13.60
2018-06-12T03:20:41.649Z,13.70
2018-06-12T03:23:11.562Z,13.70
2018-06-12T03:25:43.219Z,13.60
2018-06-12T03:28:12.830Z,13.70
2018-06-12T03:30:47.858Z,13.70
2018-06-12T03:33:20.514Z,13.80
2018-06-12T03:38:51.448Z,13.80
2018-06-12T03:44:10.402Z,13.90
2018-06-12T03:46:39.100Z,13.90
2018-06-12T03:49:07.748Z,14.00
2018-06-12T03:51:36.500Z,14.00
2018-06-12T03:54:05.131Z,14.00
2018-06-12T03:56:34.766Z,14.00
2018-06-12T03:59:03.404Z,14.00
2018-06-12T04:01:33.064Z,14.10
2018-06-12T04:04:12.158Z,14.10
2018-06-12T04:06:40.877Z,14.00
2018-06-12T04:09:15.919Z,14.00
2018-06-12T04:11:46.556Z,14.10
2018-06-12T04:14:22.213Z,14.10
2018-06-12T04:16:58.281Z,14.10
2018-06-12T04:19:27.968Z,14.20
2018-06-12T04:21:59.994Z,14.20
2018-06-12T04:24:34.202Z,14.20
2018-06-12T04:27:14.812Z,14.10
2018-06-12T04:29:55.107Z,14.20
2018-06-12T04:32:27.300Z,14.30
2018-06-12T04:35:08.472Z,14.30
2018-06-12T04:37:44.940Z,14.40
2018-06-12T04:40:20.036Z,14.30
2018-06-12T04:42:48.820Z,14.30
2018-06-12T04:45:18.372Z,14.40
2018-06-12T04:47:53.498Z,14.30
2018-06-12T04:50:23.162Z,14.40
2018-06-12T04:53:05.545Z,14.50
2018-06-12T04:55:34.438Z,14.50
2018-06-12T04:58:03.356Z,14.60
2018-06-12T05:00:36.965Z,14.60
2018-06-12T05:03:12.345Z,14.70
2018-06-12T05:05:41.064Z,14.70
2018-06-12T05:08:13.106Z,14.80
2018-06-12T05:10:54.336Z,14.70
2018-06-12T05:13:40.884Z,14.70
2018-06-12T05:16:12.178Z,14.60
2018-06-12T05:18:41.966Z,14.60
2018-06-12T05:21:14.837Z,14.50
2018-06-12T05:29:35.982Z,14.70
2018-06-12T05:32:18.140Z,14.70
2018-06-12T05:37:39.277Z,14.70
2018-06-12T05:40:13.290Z,14.70
2018-06-12T05:42:45.558Z,14.60
2018-06-12T05:45:17.626Z,14.60
2018-06-12T05:47:52.400Z,14.60
2018-06-12T05:50:32.982Z,14.50
2018-06-12T05:53:07.582Z,14.60
2018-06-12T05:55:36.320Z,14.60
2018-06-12T05:58:06.916Z,14.40
2018-06-12T06:00:35.574Z,14.50
2018-06-12T06:03:05.166Z,14.50
2018-06-12T06:05:33.832Z,14.60
2018-06-12T06:08:02.562Z,14.60
2018-06-12T06:10:32.136Z,14.80
2018-06-12T06:18:47.947Z,14.90
2018-06-12T06:21:30.730Z,14.80
2018-06-12T06:24:05.277Z,14.80
2018-06-12T06:26:51.712Z,14.90
2018-06-12T06:29:42.567Z,15.10
2018-06-12T06:32:13.104Z,15.10
2018-06-12T06:37:34.974Z,15.00
2018-06-12T06:40:11.114Z,14.90
2018-06-12T06:42:43.541Z,15.00
2018-06-12T06:45:18.285Z,15.30
2018-06-12T06:47:58.918Z,15.10
2018-06-12T06:50:47.868Z,15.30
2018-06-12T06:53:27.690Z,15.40
2018-06-12T06:55:56.384Z,15.40
2018-06-12T06:58:29.126Z,15.50
2018-06-12T07:00:59.606Z,15.30
2018-06-12T07:03:32.937Z,15.60
2018-06-12T07:06:02.560Z,15.60
2018-06-12T07:08:32.137Z,15.40
2018-06-12T07:13:55.373Z,15.50
2018-06-12T07:19:32.547Z,15.50
2018-06-12T07:22:06.955Z,15.40
2018-06-12T07:24:46.004Z,15.60
2018-06-12T07:27:21.705Z,15.70
2018-06-12T07:29:51.405Z,15.70
2018-06-12T07:32:21.036Z,15.50
2018-06-12T07:35:00.978Z,15.80
2018-06-12T07:37:42.190Z,15.80
2018-06-12T07:40:23.771Z,16.20
2018-06-12T07:42:57.816Z,16.70
2018-06-12T07:45:38.106Z,16.60
2018-06-12T07:48:25.468Z,16.30
2018-06-12T07:51:04.462Z,16.10
2018-06-12T07:53:34.136Z,15.70
2018-06-12T07:56:10.320Z,15.40
2018-06-12T07:58:39.137Z,15.80
2018-06-12T08:01:23.940Z,15.90
2018-06-12T08:03:53.841Z,16.30
2018-06-12T08:06:22.818Z,16.20
2018-06-12T08:08:51.708Z,16.00
2018-06-12T08:11:27.645Z,16.10
2018-06-12T08:14:05.715Z,16.10
2018-06-12T08:16:34.332Z,15.80
2018-06-12T08:19:04.259Z,15.90
2018-06-12T08:27:16.852Z,16.00
2018-06-12T08:29:49.702Z,15.80
2018-06-12T08:32:31.769Z,16.10
2018-06-12T08:35:20.706Z,16.30
2018-06-12T08:37:49.515Z,16.10
2018-06-12T08:40:23.476Z,16.30
2018-06-12T08:42:59.725Z,16.60
2018-06-12T08:48:32.677Z,16.40
2018-06-12T08:51:03.385Z,16.50
2018-06-12T08:53:34.197Z,16.40
2018-06-12T08:56:14.799Z,16.70
2018-06-12T08:58:48.738Z,16.70
2018-06-12T09:01:18.371Z,16.80
2018-06-12T09:04:00.778Z,16.90
2018-06-12T09:06:37.189Z,16.80
2018-06-12T09:09:07.135Z,17.00
2018-06-12T09:11:40.177Z,17.30
2018-06-12T09:14:08.807Z,17.10
2018-06-12T09:16:37.423Z,16.70
2018-06-12T09:19:06.558Z,17.10
2018-06-12T09:21:35.412Z,17.40
2018-06-12T09:24:04.395Z,17.40
2018-06-12T09:26:33.315Z,17.20
2018-06-12T09:29:02.090Z,17.20
2018-06-12T09:31:30.962Z,17.90
2018-06-12T09:33:59.589Z,17.50
2018-06-12T09:41:39.171Z,17.90
2018-06-12T09:44:10.868Z,18.30
2018-06-12T09:46:43.592Z,18.80
2018-06-12T09:49:22.001Z,19.10
2018-06-12T09:52:08.514Z,19.30
2018-06-12T09:54:55.285Z,19.00
2018-06-12T09:57:34.491Z,18.30
2018-06-12T10:00:10.682Z,18.30
2018-06-12T10:02:50.563Z,18.30
2018-06-12T10:05:39.794Z,18.70
2018-06-12T10:08:08.579Z,18.50
2018-06-12T10:10:44.593Z,18.40
2018-06-12T10:13:15.329Z,18.40
2018-06-12T10:16:06.184Z,18.60
2018-06-12T10:18:36.810Z,18.60
2018-06-12T10:21:08.886Z,18.40
2018-06-12T10:23:38.527Z,19.00
2018-06-12T10:26:09.015Z,18.90
2018-06-12T10:28:48.717Z,19.00
2018-06-12T10:31:28.493Z,19.20
2018-06-12T10:34:01.539Z,18.90
2018-06-12T10:36:32.095Z,19.00
2018-06-12T10:39:21.516Z,18.70
2018-06-12T10:41:53.708Z,18.70
2018-06-12T10:50:11.380Z,18.80
2018-06-12T10:52:52.538Z,19.20
2018-06-12T10:55:38.728Z,19.40
2018-06-12T10:58:08.550Z,18.60
2018-06-12T11:00:45.099Z,19.10
2018-06-12T11:03:25.175Z,19.40
2018-06-12T11:05:58.740Z,19.10
2018-06-12T11:11:16.184Z,19.20
2018-06-12T11:13:44.809Z,19.40
2018-06-12T11:16:14.432Z,19.80
2018-06-12T11:18:53.495Z,19.40
2018-06-12T11:21:41.186Z,19.70
2018-06-12T11:24:27.078Z,19.80
2018-06-12T11:27:09.913Z,19.40
2018-06-12T11:29:44.498Z,19.50
2018-06-12T11:34:47.486Z,19.20
2018-06-12T11:37:35.056Z,19.60
2018-06-12T11:40:03.957Z,19.50
2018-06-12T11:42:44.410Z,19.30
2018-06-12T11:45:17.580Z,19.30
2018-06-12T11:50:21.074Z,19.70
2018-06-12T11:52:51.990Z,19.50
2018-06-12T11:55:28.288Z,19.20
2018-06-12T11:57:58.181Z,19.40
2018-06-12T12:00:29.010Z,19.70
2018-06-12T12:03:11.843Z,19.70
2018-06-12T12:05:42.660Z,19.90
2018-06-12T12:08:21.712Z,19.80
2018-06-12T12:11:04.475Z,20.10
2018-06-12T12:13:34.216Z,20.20
2018-06-12T12:18:56.783Z,20.50
2018-06-12T12:21:27.337Z,20.20
2018-06-12T12:24:06.751Z,20.00
2018-06-12T12:26:36.429Z,20.10
2018-06-12T12:29:06.097Z,20.70
2018-06-12T12:31:34.734Z,20.50
2018-06-12T12:34:04.411Z,20.50
2018-06-12T12:36:46.074Z,20.30
2018-06-12T12:39:14.867Z,20.30
2018-06-12T12:41:55.149Z,20.80
2018-06-12T12:44:23.923Z,20.70
2018-06-12T12:46:59.913Z,20.50
2018-06-12T12:49:40.006Z,20.50
2018-06-12T12:52:22.694Z,20.40
2018-06-12T12:55:14.114Z,20.80
2018-06-12T12:57:47.219Z,20.70
2018-06-12T13:00:19.341Z,21.30
2018-06-12T13:02:59.907Z,21.30
2018-06-12T13:05:38.761Z,21.50
2018-06-12T13:08:12.417Z,21.00
2018-06-12T13:10:55.121Z,21.30
2018-06-12T13:13:23.977Z,21.60
2018-06-12T13:15:57.929Z,21.30
2018-06-12T13:18:27.956Z,20.70
2018-06-12T13:20:56.882Z,20.30
2018-06-12T13:23:26.762Z,20.30
2018-06-12T13:25:57.683Z,20.40
2018-06-12T13:28:26.358Z,19.90
2018-06-12T13:33:54.814Z,20.30
2018-06-12T13:36:30.947Z,20.30
2018-06-12T13:39:01.944Z,20.30
2018-06-12T13:41:40.229Z,20.40
2018-06-12T13:46:48.749Z,20.40
2018-06-12T13:49:27.491Z,20.30
2018-06-12T13:51:56.228Z,20.70
2018-06-12T13:54:24.883Z,20.50
2018-06-12T13:56:56.986Z,19.70
2018-06-12T13:59:27.638Z,20.10
2018-06-12T14:02:00.508Z,20.40
2018-06-12T14:04:31.144Z,20.20
2018-06-12T14:07:01.977Z,19.70
2018-06-12T14:09:30.446Z,19.70
2018-06-12T14:12:07.232Z,19.80
2018-06-12T14:14:36.826Z,19.80
2018-06-12T14:17:10.130Z,19.70
2018-06-12T14:19:39.895Z,19.60
2018-06-12T14:22:08.483Z,19.60
2018-06-12T14:24:40.835Z,19.60
2018-06-12T14:27:28.730Z,19.50
2018-06-12T14:30:14.645Z,19.40
2018-06-12T14:32:46.504Z,19.60
2018-06-12T14:35:20.823Z,19.70
2018-06-12T14:37:50.984Z,19.60
2018-06-12T14:40:25.399Z,19.60
2018-06-12T14:42:54.160Z,19.60
2018-06-12T14:45:23.789Z,19.60
2018-06-12T14:47:53.160Z,19.50
2018-06-12T14:50:21.746Z,19.10
2018-06-12T14:52:51.621Z,19.10
2018-06-12T14:55:23.152Z,19.10
2018-06-12T14:57:51.825Z,18.90
2018-06-12T15:00:21.442Z,19.00
2018-06-12T15:02:59.935Z,19.10
2018-06-12T15:05:30.522Z,19.10
2018-06-12T15:08:02.356Z,19.20
2018-06-12T15:10:49.018Z,19.00
2018-06-12T15:13:18.168Z,18.80
2018-06-12T15:15:47.133Z,18.70
2018-06-12T15:18:17.974Z,18.60
2018-06-12T15:20:53.678Z,18.40
2018-06-12T15:23:27.020Z,18.80
2018-06-12T15:26:05.871Z,18.40
2018-06-12T15:28:40.663Z,18.40
2018-06-12T15:31:09.578Z,18.50
2018-06-12T15:33:42.366Z,18.10
2018-06-12T15:36:29.318Z,18.10
2018-06-12T15:41:40.310Z,17.70
2018-06-12T15:46:40.389Z,17.70
2018-06-12T15:49:21.972Z,17.80
2018-06-12T15:52:03.792Z,17.60
2018-06-12T15:54:51.204Z,17.30
2018-06-12T15:57:30.073Z,17.40
2018-06-12T16:00:01.936Z,17.30
2018-06-12T16:02:37.306Z,17.30
2018-06-12T16:07:49.439Z,17.60
2018-06-12T16:10:18.218Z,17.70
2018-06-12T16:12:47.846Z,17.60
2018-06-12T16:15:24.716Z,17.40
2018-06-12T16:17:53.430Z,17.30
2018-06-12T16:20:46.001Z,17.10
2018-06-12T16:23:15.760Z,17.40
2018-06-12T16:25:44.368Z,17.50
2018-06-12T16:28:13.060Z,17.40
2018-06-12T16:30:41.997Z,17.20
2018-06-12T16:33:12.576Z,17.20
2018-06-12T16:35:45.902Z,17.10
2018-06-12T16:38:15.497Z,17.10
2018-06-12T16:40:44.186Z,17.00
2018-06-12T16:43:12.878Z,16.90
2018-06-12T16:45:44.602Z,16.80
2018-06-12T16:48:14.265Z,16.60
2018-06-12T16:50:52.411Z,16.50
2018-06-12T16:53:24.238Z,16.50
2018-06-12T16:55:52.934Z,16.70
2018-06-12T16:58:23.168Z,16.50
2018-06-12T17:03:25.753Z,16.10
2018-06-12T17:05:54.406Z,16.10
2018-06-12T17:08:32.940Z,15.90
2018-06-12T17:11:09.610Z,15.90
2018-06-12T17:13:41.689Z,15.90
2018-06-12T17:16:16.177Z,15.80
2018-06-12T17:18:46.836Z,15.90
2018-06-12T17:21:25.214Z,16.00
2018-06-12T17:23:56.004Z,16.20
2018-06-12T17:26:24.790Z,16.10
2018-06-12T17:29:03.612Z,16.20
2018-06-12T17:31:36.955Z,16.30
2018-06-12T17:34:06.097Z,16.30
2018-06-12T17:36:37.962Z,16.40
2018-06-12T17:39:11.355Z,16.20
2018-06-12T17:42:02.245Z,16.20
2018-06-12T17:44:32.893Z,16.20
2018-06-12T17:47:03.460Z,16.30
2018-06-12T17:49:33.076Z,16.10
2018-06-12T17:52:08.408Z,16.00
2018-06-12T17:54:47.273Z,15.90
2018-06-12T17:57:23.295Z,15.90
2018-06-12T17:59:53.103Z,15.90
2018-06-12T18:02:34.093Z,16.10
2018-06-12T18:05:02.675Z,16.10
2018-06-12T18:10:07.470Z,16.10
2018-06-12T18:12:41.833Z,15.90
2018-06-12T18:15:12.570Z,16.00
2018-06-12T18:17:49.747Z,15.80
2018-06-12T18:20:38.238Z,15.80
2018-06-12T18:23:10.825Z,15.70
2018-06-12T18:25:42.871Z,15.80
2018-06-12T18:28:17.287Z,15.60
2018-06-12T18:33:27.953Z,15.50
2018-06-12T18:35:56.619Z,15.60
2018-06-12T18:38:37.483Z,15.70
2018-06-12T18:41:06.323Z,15.80
2018-06-12T18:43:34.970Z,15.90
2018-06-12T18:46:03.701Z,15.90
2018-06-12T18:48:32.363Z,15.90
2018-06-12T18:51:01.071Z,15.90
2018-06-12T18:53:29.765Z,15.90
2018-06-12T18:56:02.124Z,15.80
2018-06-12T18:58:31.742Z,15.80
2018-06-12T19:03:30.054Z,15.70
2018-06-12T19:05:58.688Z,15.60
2018-06-12T19:08:27.406Z,15.60
2018-06-12T19:13:26.617Z,15.70
2018-06-12T19:15:55.266Z,15.60
2018-06-12T19:18:23.953Z,15.50
2018-06-12T19:20:56.366Z,15.70
2018-06-12T19:25:54.339Z,15.60
2018-06-12T19:28:23.085Z,15.60
2018-06-12T19:30:57.214Z,15.60
2018-06-12T19:33:31.143Z,15.60
2018-06-12T19:36:06.230Z,15.70
2018-06-12T19:38:41.619Z,15.60
2018-06-12T19:41:14.380Z,15.60
2018-06-12T19:43:47.136Z,15.50
2018-06-12T19:46:30.051Z,15.50
2018-06-12T19:48:59.902Z,15.60
2018-06-12T19:51:28.663Z,15.80
2018-06-12T19:53:59.352Z,15.90
2018-06-12T19:56:29.010Z,15.90
2018-06-12T19:59:20.580Z,15.60
2018-06-12T20:01:56.310Z,15.60
2018-06-12T20:04:29.910Z,15.80
2018-06-12T20:07:00.149Z,15.90
2018-06-12T20:09:41.200Z,15.80
2018-06-12T20:12:32.875Z,15.70
2018-06-12T20:20:52.217Z,16.00
2018-06-12T20:23:39.843Z,16.00
2018-06-12T20:26:12.545Z,16.20
2018-06-12T20:28:46.855Z,16.20
2018-06-12T20:31:16.363Z,16.20
2018-06-12T20:33:50.916Z,16.00
2018-06-12T20:36:25.371Z,15.90
2018-06-12T20:39:04.051Z,15.70
2018-06-12T20:41:42.477Z,15.60
2018-06-12T20:44:16.477Z,15.60
2018-06-12T20:46:46.381Z,15.70
2018-06-12T20:49:20.448Z,15.50
2018-06-12T20:51:51.131Z,15.40
2018-06-12T20:54:29.476Z,15.40
2018-06-12T20:57:17.471Z,15.30
2018-06-12T20:59:48.180Z,15.10
2018-06-12T21:02:19.223Z,15.10
2018-06-12T21:07:40.298Z,15.00
2018-06-12T21:13:19.461Z,14.90
2018-06-12T21:15:53.193Z,14.90
2018-06-12T21:18:28.408Z,14.90
2018-06-12T21:21:04.555Z,14.80
2018-06-12T21:23:34.131Z,14.70
2018-06-12T21:26:16.881Z,14.70
2018-06-12T21:29:03.691Z,14.70
2018-06-12T21:31:34.327Z,14.70
2018-06-12T21:34:09.424Z,14.60
2018-06-12T21:36:42.671Z,14.60
2018-06-12T21:39:17.581Z,14.50
2018-06-12T21:41:46.487Z,14.50
2018-06-12T21:44:15.519Z,14.50
2018-06-12T21:46:48.513Z,14.40
2018-06-12T21:49:18.419Z,14.30
2018-06-12T21:51:47.245Z,14.20
2018-06-12T21:54:36.365Z,14.20
2018-06-12T21:57:09.910Z,14.20
2018-06-12T21:59:52.507Z,14.20
2018-06-12T22:02:26.226Z,14.20
2018-06-12T22:05:11.067Z,14.20
2018-06-12T22:07:50.196Z,14.20
2018-06-12T22:10:19.568Z,14.10
2018-06-12T22:12:52.273Z,14.00
2018-06-12T22:15:24.322Z,14.00
2018-06-12T22:17:54.477Z,14.00
2018-06-12T22:20:23.352Z,14.00
2018-06-12T22:22:51.979Z,13.90
2018-06-12T22:25:22.924Z,13.80
2018-06-12T22:27:54.827Z,13.80
2018-06-12T22:30:23.472Z,13.80
2018-06-12T22:32:55.104Z,13.80
2018-06-12T22:35:36.141Z,13.60
2018-06-12T22:38:08.783Z,13.60
2018-06-12T22:40:41.738Z,13.60
2018-06-12T22:43:15.460Z,13.60
2018-06-12T22:46:02.292Z,13.60
2018-06-12T22:48:31.002Z,13.60
2018-06-12T22:51:15.578Z,13.60
2018-06-12T22:53:54.742Z,13.50
2018-06-12T22:56:25.929Z,13.50
2018-06-12T22:58:54.928Z,13.50
2018-06-12T23:01:28.332Z,13.40
2018-06-12T23:04:12.945Z,13.20
2018-06-12T23:06:51.681Z,13.20
2018-06-12T23:12:20.710Z,13.10
2018-06-12T23:15:00.730Z,13.10
2018-06-12T23:17:40.381Z,13.00
2018-06-12T23:21:20.163Z,12.90
2018-06-12T23:26:37.878Z,12.80
2018-06-12T23:29:12.664Z,12.80
2018-06-12T23:31:41.340Z,12.80
2018-06-12T23:34:13.075Z,12.80
2018-06-12T23:36:45.877Z,12.70
2018-06-12T23:39:17.923Z,12.70
2018-06-12T23:41:47.493Z,12.60
2018-06-12T23:44:29.574Z,12.70
2018-06-12T23:47:00.223Z,12.70
2018-06-12T23:49:41.688Z,12.70
2018-06-12T23:52:34.983Z,12.70
2018-06-12T23:58:01.629Z,12.80
